createdAt,value
2024-02-13T00:00:29.109Z,94415.00
2024-02-13T00:01:29.108Z,94416.00
2024-02-13T00:02:29.172Z,94417.00
2024-02-13T00:03:29.227Z,94420.00
2024-02-13T00:04:29.291Z,94420.00
2024-02-13T00:05:29.379Z,94419.00
2024-02-13T00:06:29.430Z,94419.00
2024-02-13T00:07:29.515Z,94419.00
2024-02-13T00:08:40.404Z,94420.00
2024-02-13T00:09:30.618Z,94419.00
2024-02-13T00:10:29.557Z,94421.00
2024-02-13T00:11:29.597Z,94421.00
2024-02-13T00:12:29.566Z,94425.00
2024-02-13T00:13:29.550Z,94424.00
2024-02-13T00:14:29.607Z,94427.00
2024-02-13T00:15:29.551Z,94429.00
2024-02-13T00:16:29.592Z,94430.00
2024-02-13T00:17:29.706Z,94433.00
2024-02-13T00:18:29.748Z,94434.00
2024-02-13T00:19:29.817Z,94436.00
2024-02-13T00:20:29.940Z,94434.00
2024-02-13T00:21:29.905Z,94433.00
2024-02-13T00:22:29.969Z,94437.00
2024-02-13T00:23:30.122Z,94440.00
2024-02-13T00:24:30.103Z,94446.00
2024-02-13T00:25:30.164Z,94445.00
2024-02-13T00:26:30.392Z,94449.00
2024-02-13T00:27:30.315Z,94447.00
2024-02-13T00:28:30.384Z,94449.00
2024-02-13T00:29:30.483Z,94452.00
2024-02-13T00:30:32.590Z,94452.00
2024-02-13T00:31:30.512Z,94451.00
2024-02-13T00:32:30.601Z,94453.00
2024-02-13T00:33:30.530Z,94455.00
2024-02-13T00:34:30.537Z,94459.00
2024-02-13T00:35:30.538Z,94460.00
2024-02-13T00:36:30.498Z,94464.00
2024-02-13T00:37:30.520Z,94465.00
2024-02-13T00:38:30.534Z,94469.00
2024-02-13T00:39:30.506Z,94471.00
2024-02-13T00:40:30.522Z,94472.00
2024-02-13T00:41:30.562Z,94472.00
2024-02-13T00:42:30.516Z,94472.00
2024-02-13T00:43:30.523Z,94472.00
2024-02-13T00:44:30.644Z,94474.00
2024-02-13T00:45:30.534Z,94474.00
2024-02-13T00:46:30.534Z,94477.00
2024-02-13T00:47:30.628Z,94477.00
2024-02-13T00:48:30.560Z,94477.00
2024-02-13T00:49:30.529Z,94476.00
2024-02-13T00:50:30.555Z,94482.00
2024-02-13T00:51:30.520Z,94485.00
2024-02-13T00:52:30.520Z,94483.00
2024-02-13T00:53:30.576Z,94483.00
2024-02-13T00:54:30.539Z,94486.00
2024-02-13T00:55:30.522Z,94489.00
2024-02-13T00:56:30.657Z,94494.00
2024-02-13T00:57:30.558Z,94496.00
2024-02-13T00:58:30.542Z,94497.00
2024-02-13T00:59:30.612Z,94500.00
2024-02-13T01:00:30.564Z,94499.00
2024-02-13T01:01:30.568Z,94501.00
2024-02-13T01:02:30.638Z,94503.00
2024-02-13T01:03:30.772Z,94507.00
2024-02-13T01:04:30.736Z,94508.00
2024-02-13T01:05:30.788Z,94510.00
2024-02-13T01:06:30.935Z,94511.00
2024-02-13T01:07:30.908Z,94512.00
2024-02-13T01:08:30.914Z,94511.00
2024-02-13T01:09:30.981Z,94512.00
2024-02-13T01:10:30.997Z,94511.00
2024-02-13T01:11:31.138Z,94510.00
2024-02-13T01:12:31.114Z,94510.00
2024-02-13T01:13:31.167Z,94509.00
2024-02-13T01:14:31.245Z,94510.00
2024-02-13T01:15:31.271Z,94512.00
2024-02-13T01:16:31.317Z,94513.00
2024-02-13T01:17:31.472Z,94514.00
2024-02-13T01:18:31.504Z,94517.00
2024-02-13T01:19:31.549Z,94517.00
2024-02-13T01:20:31.545Z,94521.00
2024-02-13T01:21:31.561Z,94523.00
2024-02-13T01:22:31.630Z,94522.00
2024-02-13T01:23:31.707Z,94525.00
2024-02-13T01:24:31.704Z,94524.00
2024-02-13T01:25:31.773Z,94524.00
2024-02-13T01:26:31.831Z,94528.00
2024-02-13T01:27:31.840Z,94532.00
2024-02-13T01:28:31.883Z,94532.00
2024-02-13T01:29:31.987Z,94535.00
2024-02-13T01:30:31.954Z,94537.00
2024-02-13T01:31:31.983Z,94536.00
2024-02-13T01:32:32.087Z,94537.00
2024-02-13T01:33:32.202Z,94540.00
2024-02-13T01:34:32.216Z,94540.00
2024-02-13T01:35:32.167Z,94544.00
2024-02-13T01:36:32.162Z,94543.00
2024-02-13T01:37:32.310Z,94543.00
2024-02-13T01:38:32.260Z,94544.00
2024-02-13T01:39:32.277Z,94546.00
2024-02-13T01:40:32.308Z,94545.00
2024-02-13T01:41:32.364Z,94544.00
2024-02-13T01:42:32.385Z,94546.00
2024-02-13T01:43:32.432Z,94547.00
2024-02-13T01:44:32.486Z,94550.00
2024-02-13T01:45:32.494Z,94550.00
2024-02-13T01:46:32.503Z,94551.00
2024-02-13T01:47:32.558Z,94552.00
2024-02-13T01:48:32.636Z,94557.00
2024-02-13T01:49:32.679Z,94558.00
2024-02-13T01:50:32.638Z,94561.00
2024-02-13T01:51:32.662Z,94560.00
2024-02-13T01:52:32.673Z,94563.00
2024-02-13T01:53:32.752Z,94565.00
2024-02-13T01:54:32.733Z,94567.00
2024-02-13T01:55:32.737Z,94569.00
2024-02-13T01:56:32.840Z,94571.00
2024-02-13T01:57:32.789Z,94568.00
2024-02-13T01:58:32.808Z,94570.00
2024-02-13T01:59:32.877Z,94570.00
2024-02-13T02:00:32.840Z,94571.00
2024-02-13T02:01:32.839Z,94572.00
2024-02-13T02:02:32.882Z,94573.00
2024-02-13T02:03:32.918Z,94576.00
2024-02-13T02:04:32.878Z,94576.00
2024-02-13T02:05:32.963Z,94578.00
2024-02-13T02:06:32.913Z,94580.00
2024-02-13T02:07:32.914Z,94583.00
2024-02-13T02:08:32.958Z,94584.00
2024-02-13T02:09:32.922Z,94586.00
2024-02-13T02:10:32.932Z,94587.00
2024-02-13T02:11:32.964Z,94591.00
2024-02-13T02:12:32.929Z,94591.00
2024-02-13T02:13:32.946Z,94594.00
2024-02-13T02:14:32.980Z,94596.00
2024-02-13T02:15:32.962Z,94598.00
2024-02-13T02:16:32.983Z,94599.00
2024-02-13T02:17:33.155Z,94599.00
2024-02-13T02:18:33.180Z,94602.00
2024-02-13T02:19:33.087Z,94603.00
2024-02-13T02:20:33.016Z,94604.00
2024-02-13T02:21:33.028Z,94603.00
2024-02-13T02:22:33.028Z,94603.00
2024-02-13T02:23:33.059Z,94604.00
2024-02-13T02:24:33.072Z,94603.00
2024-02-13T02:25:33.106Z,94608.00
2024-02-13T02:26:33.176Z,94611.00
2024-02-13T02:27:33.114Z,94611.00
2024-02-13T02:28:33.137Z,94613.00
2024-02-13T02:29:33.181Z,94613.00
2024-02-13T02:30:33.172Z,94610.00
2024-02-13T02:31:33.159Z,94614.00
2024-02-13T02:32:33.237Z,94616.00
2024-02-13T02:33:33.247Z,94615.00
2024-02-13T02:34:33.200Z,94614.00
2024-02-13T02:35:33.218Z,94611.00
2024-02-13T02:36:33.202Z,94612.00
2024-02-13T02:37:33.201Z,94613.00
2024-02-13T02:38:33.242Z,94613.00
2024-02-13T02:39:33.244Z,94616.00
2024-02-13T02:40:33.252Z,94617.00
2024-02-13T02:41:33.282Z,94621.00
2024-02-13T02:42:33.283Z,94624.00
2024-02-13T02:43:33.334Z,94627.00
2024-02-13T02:44:33.318Z,94628.00
2024-02-13T02:45:33.317Z,94631.00
2024-02-13T02:46:33.304Z,94632.00
2024-02-13T02:47:33.354Z,94633.00
2024-02-13T02:48:33.431Z,94635.00
2024-02-13T02:49:33.362Z,94637.00
2024-02-13T02:50:33.345Z,94638.00
2024-02-13T02:51:33.339Z,94642.00
2024-02-13T02:52:33.354Z,94642.00
2024-02-13T02:53:33.426Z,94643.00
2024-02-13T02:54:33.390Z,94645.00
2024-02-13T02:55:33.403Z,94644.00
2024-02-13T02:56:33.436Z,94650.00
2024-02-13T02:57:33.418Z,94648.00
2024-02-13T02:58:33.522Z,94649.00
2024-02-13T02:59:33.497Z,94650.00
2024-02-13T03:00:33.475Z,94650.00
2024-02-13T03:01:33.450Z,94650.00
2024-02-13T03:02:33.483Z,94652.00
2024-02-13T03:03:33.514Z,94655.00
2024-02-13T03:04:33.522Z,94659.00
2024-02-13T03:05:33.557Z,94658.00
2024-02-13T03:06:33.590Z,94657.00
2024-02-13T03:07:33.501Z,94656.00
2024-02-13T03:08:33.535Z,94660.00
2024-02-13T03:09:33.521Z,94661.00
2024-02-13T03:10:33.512Z,94661.00
2024-02-13T03:11:33.575Z,94665.00
2024-02-13T03:12:33.525Z,94663.00
2024-02-13T03:13:33.532Z,94665.00
2024-02-13T03:14:33.582Z,94663.00
2024-02-13T03:15:33.537Z,94662.00
2024-02-13T03:16:33.559Z,94662.00
2024-02-13T03:17:33.701Z,94664.00
2024-02-13T03:18:33.718Z,94669.00
2024-02-13T03:19:33.618Z,94670.00
2024-02-13T03:20:33.605Z,94676.00
2024-02-13T03:21:33.582Z,94679.00
2024-02-13T03:22:33.589Z,94680.00
2024-02-13T03:23:33.628Z,94682.00
2024-02-13T03:24:33.617Z,94680.00
2024-02-13T03:25:33.611Z,94680.00
2024-02-13T03:26:33.684Z,94679.00
2024-02-13T03:27:33.617Z,94683.00
2024-02-13T03:28:33.632Z,94687.00
2024-02-13T03:29:33.733Z,94693.00
2024-02-13T03:30:33.660Z,94692.00
2024-02-13T03:31:33.635Z,94693.00
2024-02-13T03:32:33.761Z,94691.00
2024-02-13T03:33:33.766Z,94692.00
2024-02-13T03:34:33.844Z,94693.00
2024-02-13T03:35:33.742Z,94696.00
2024-02-13T03:36:33.693Z,94695.00
2024-02-13T03:37:33.709Z,94698.00
2024-02-13T03:38:33.705Z,94699.00
2024-02-13T03:39:33.721Z,94700.00
2024-02-13T03:40:33.710Z,94703.00
2024-02-13T03:41:33.770Z,94702.00
2024-02-13T03:42:33.732Z,94707.00
2024-02-13T03:43:33.734Z,94708.00
2024-02-13T03:44:33.853Z,94712.00
2024-02-13T03:45:33.754Z,94713.00
2024-02-13T03:46:33.765Z,94712.00
2024-02-13T03:47:33.823Z,94711.00
2024-02-13T03:48:33.889Z,94712.00
2024-02-13T03:49:33.878Z,94712.00
2024-02-13T03:50:34.004Z,94713.00
2024-02-13T03:51:33.800Z,94714.00
2024-02-13T03:52:33.814Z,94716.00
2024-02-13T03:53:33.846Z,94717.00
2024-02-13T03:54:33.846Z,94718.00
2024-02-13T03:55:33.860Z,94719.00
2024-02-13T03:56:33.943Z,94724.00
2024-02-13T03:57:33.875Z,94725.00
2024-02-13T03:58:33.900Z,94727.00
2024-02-13T03:59:33.961Z,94729.00
2024-02-13T04:00:34.028Z,94730.00
2024-02-13T04:01:33.908Z,94731.00
2024-02-13T04:02:33.974Z,94732.00
2024-02-13T04:03:33.983Z,94733.00
2024-02-13T04:04:33.985Z,94736.00
2024-02-13T04:05:33.998Z,94738.00
2024-02-13T04:06:33.998Z,94740.00
2024-02-13T04:07:33.977Z,94742.00
2024-02-13T04:08:34.093Z,94745.00
2024-02-13T04:09:33.990Z,94748.00
2024-02-13T04:10:34.007Z,94750.00
2024-02-13T04:11:34.057Z,94750.00
2024-02-13T04:12:34.035Z,94753.00
2024-02-13T04:13:34.061Z,94754.00
2024-02-13T04:14:34.113Z,94756.00
2024-02-13T04:15:34.066Z,94756.00
2024-02-13T04:16:34.080Z,94757.00
2024-02-13T04:17:34.156Z,94757.00
2024-02-13T04:18:34.193Z,94760.00
2024-02-13T04:19:34.160Z,94759.00
2024-02-13T04:20:34.196Z,94761.00
2024-02-13T04:21:34.117Z,94763.00
2024-02-13T04:22:34.139Z,94764.00
2024-02-13T04:23:34.179Z,94767.00
2024-02-13T04:24:34.155Z,94765.00
2024-02-13T04:25:34.175Z,94762.00
2024-02-13T04:26:36.865Z,94760.00
2024-02-13T04:27:34.186Z,94758.00
2024-02-13T04:28:34.158Z,94757.00
2024-02-13T04:29:34.181Z,94759.00
2024-02-13T04:30:34.167Z,94759.00
2024-02-13T04:31:41.513Z,94758.00
2024-02-13T04:32:41.672Z,94759.00
2024-02-13T04:33:41.621Z,94761.00
2024-02-13T04:34:41.575Z,94763.00
2024-02-13T04:35:41.568Z,94762.00
2024-02-13T04:36:41.524Z,94766.00
2024-02-13T04:37:41.531Z,94762.00
2024-02-13T04:38:41.534Z,94765.00
2024-02-13T04:39:41.533Z,94764.00
2024-02-13T04:40:41.534Z,94769.00
2024-02-13T04:41:41.551Z,94772.00
2024-02-13T04:42:41.531Z,94777.00
2024-02-13T04:43:41.581Z,94778.00
2024-02-13T04:44:41.623Z,94782.00
2024-02-13T04:45:41.532Z,94782.00
2024-02-13T04:46:41.520Z,94783.00
2024-02-13T04:47:41.598Z,94783.00
2024-02-13T04:48:41.621Z,94785.00
2024-02-13T04:49:41.545Z,94787.00
2024-02-13T04:50:41.555Z,94786.00
2024-02-13T04:51:41.528Z,94787.00
2024-02-13T04:52:41.523Z,94786.00
2024-02-13T04:53:41.557Z,94785.00
2024-02-13T04:54:41.538Z,94784.00
2024-02-13T04:55:41.529Z,94784.00
2024-02-13T04:56:41.598Z,94781.00
2024-02-13T04:57:41.539Z,94783.00
2024-02-13T04:58:41.537Z,94782.00
2024-02-13T04:59:41.574Z,94784.00
2024-02-13T05:00:41.546Z,94784.00
2024-02-13T05:01:41.566Z,94785.00
2024-02-13T05:02:41.546Z,94786.00
2024-02-13T05:03:41.541Z,94786.00
2024-02-13T05:04:41.555Z,94788.00
2024-02-13T05:05:41.649Z,94791.00
2024-02-13T05:06:41.681Z,94793.00
2024-02-13T05:07:41.550Z,94793.00
2024-02-13T05:08:41.580Z,94797.00
2024-02-13T05:09:41.591Z,94797.00
2024-02-13T05:10:41.629Z,94797.00
2024-02-13T05:11:41.687Z,94799.00
2024-02-13T05:12:41.707Z,94798.00
2024-02-13T05:13:41.751Z,94800.00
2024-02-13T05:14:41.790Z,94802.00
2024-02-13T05:15:41.797Z,94804.00
2024-02-13T05:16:41.820Z,94801.00
2024-02-13T05:17:41.968Z,94801.00
2024-02-13T05:18:42.018Z,94801.00
2024-02-13T05:19:41.893Z,94802.00
2024-02-13T05:20:41.968Z,94805.00
2024-02-13T05:21:41.957Z,94807.00
2024-02-13T05:22:41.994Z,94810.00
2024-02-13T05:23:42.103Z,94811.00
2024-02-13T05:24:42.020Z,94812.00
2024-02-13T05:25:42.051Z,94813.00
2024-02-13T05:26:42.198Z,94813.00
2024-02-13T05:27:42.105Z,94813.00
2024-02-13T05:28:42.138Z,94815.00
2024-02-13T05:29:42.266Z,94815.00
2024-02-13T05:30:42.201Z,94817.00
2024-02-13T05:31:42.232Z,94819.00
2024-02-13T05:32:42.302Z,94817.00
2024-02-13T05:33:42.415Z,94819.00
2024-02-13T05:34:42.324Z,94818.00
2024-02-13T05:35:42.326Z,94817.00
2024-02-13T05:36:42.356Z,94817.00
2024-02-13T05:37:42.361Z,94817.00
2024-02-13T05:38:42.459Z,94822.00
2024-02-13T05:39:42.395Z,94824.00
2024-02-13T05:40:42.449Z,94826.00
2024-02-13T05:41:42.430Z,94825.00
2024-02-13T05:42:42.459Z,94828.00
2024-02-13T05:43:42.523Z,94827.00
2024-02-13T05:44:42.536Z,94825.00
2024-02-13T05:45:42.511Z,94827.00
2024-02-13T05:46:42.526Z,94829.00
2024-02-13T05:47:42.596Z,94829.00
2024-02-13T05:48:42.713Z,94831.00
2024-02-13T05:49:42.677Z,94832.00
2024-02-13T05:50:42.670Z,94834.00
2024-02-13T05:51:42.642Z,94835.00
2024-02-13T05:52:42.680Z,94835.00
2024-02-13T05:53:42.933Z,94838.00
2024-02-13T05:54:43.944Z,94839.00
2024-02-13T05:55:42.754Z,94841.00
2024-02-13T05:56:42.765Z,94839.00
2024-02-13T05:57:42.795Z,94840.00
2024-02-13T05:58:42.814Z,94838.00
2024-02-13T05:59:42.857Z,94839.00
2024-02-13T06:00:42.930Z,94839.00
2024-02-13T06:01:42.943Z,94841.00
2024-02-13T06:02:42.962Z,94843.00
2024-02-13T06:03:43.092Z,94843.00
2024-02-13T06:04:42.981Z,94848.00
2024-02-13T06:05:43.083Z,94850.00
2024-02-13T06:06:43.172Z,94851.00
2024-02-13T06:07:43.066Z,94851.00
2024-02-13T06:08:43.175Z,94851.00
2024-02-13T06:09:43.157Z,94854.00
2024-02-13T06:10:43.221Z,94856.00
2024-02-13T06:11:43.266Z,94855.00
2024-02-13T06:12:43.244Z,94856.00
2024-02-13T06:13:43.319Z,94856.00
2024-02-13T06:14:43.325Z,94858.00
2024-02-13T06:15:43.351Z,94859.00
2024-02-13T06:16:43.392Z,94862.00
2024-02-13T06:17:43.491Z,94863.00
2024-02-13T06:18:43.537Z,94866.00
2024-02-13T06:19:43.514Z,94868.00
2024-02-13T06:20:43.580Z,94870.00
2024-02-13T06:21:43.585Z,94872.00
2024-02-13T06:22:43.614Z,94874.00
2024-02-13T06:23:43.735Z,94875.00
2024-02-13T06:24:43.694Z,94875.00
2024-02-13T06:25:43.723Z,94875.00
2024-02-13T06:26:43.793Z,94877.00
2024-02-13T06:27:43.801Z,94879.00
2024-02-13T06:28:43.852Z,94881.00
2024-02-13T06:29:43.937Z,94883.00
2024-02-13T06:30:43.934Z,94882.00
2024-02-13T06:31:43.977Z,94881.00
2024-02-13T06:32:44.118Z,94880.00
2024-02-13T06:33:44.157Z,94882.00
2024-02-13T06:34:44.093Z,94883.00
2024-02-13T06:35:44.176Z,94885.00
2024-02-13T06:36:44.153Z,94888.00
2024-02-13T06:37:44.184Z,94891.00
2024-02-13T06:38:44.249Z,94897.00
2024-02-13T06:39:44.243Z,94896.00
2024-02-13T06:40:44.303Z,94899.00
2024-02-13T06:41:44.337Z,94899.00
2024-02-13T06:42:44.339Z,94900.00
2024-02-13T06:43:44.389Z,94898.00
2024-02-13T06:44:44.451Z,94898.00
2024-02-13T06:45:44.451Z,94900.00
2024-02-13T06:46:44.499Z,94903.00
2024-02-13T06:47:44.604Z,94905.00
2024-02-13T06:48:44.661Z,94904.00
2024-02-13T06:49:44.692Z,94907.00
2024-02-13T06:50:44.715Z,94908.00
2024-02-13T06:51:44.683Z,94908.00
2024-02-13T06:52:44.793Z,94909.00
2024-02-13T06:53:44.854Z,94910.00
2024-02-13T06:54:46.394Z,94911.00
2024-02-13T06:55:44.829Z,94909.00
2024-02-13T06:56:44.873Z,94910.00
2024-02-13T06:57:44.900Z,94911.00
2024-02-13T06:58:44.934Z,94912.00
2024-02-13T06:59:45.052Z,94912.00
2024-02-13T07:00:45.038Z,94915.00
2024-02-13T07:01:45.046Z,94915.00
2024-02-13T07:02:45.193Z,94916.00
2024-02-13T07:03:45.193Z,94917.00
2024-02-13T07:04:45.191Z,94918.00
2024-02-13T07:05:45.320Z,94916.00
2024-02-13T07:06:55.402Z,94915.00
2024-02-13T07:07:48.227Z,94914.00
2024-02-13T07:08:45.380Z,94915.00
2024-02-13T07:09:45.370Z,94916.00
2024-02-13T07:10:45.256Z,94918.00
2024-02-13T07:11:45.395Z,94918.00
2024-02-13T07:12:45.728Z,94919.00
2024-02-13T07:13:45.246Z,94919.00
2024-02-13T07:14:45.326Z,94918.00
2024-02-13T07:15:45.355Z,94920.00
2024-02-13T07:16:45.266Z,94918.00
2024-02-13T07:17:53.395Z,94919.00
2024-02-13T07:18:46.392Z,94919.00
2024-02-13T07:19:45.320Z,94920.00
2024-02-13T07:20:45.332Z,94922.00
2024-02-13T07:21:45.270Z,94922.00
2024-02-13T07:22:45.286Z,94923.00
2024-02-13T07:23:45.288Z,94923.00
2024-02-13T07:24:45.267Z,94924.00
2024-02-13T07:25:45.278Z,94930.00
2024-02-13T07:26:45.312Z,94928.00
2024-02-13T07:27:45.274Z,94932.00
2024-02-13T07:28:45.285Z,94932.00
2024-02-13T07:29:45.327Z,94929.00
2024-02-13T07:30:45.307Z,94932.00
2024-02-13T07:31:45.285Z,94933.00
2024-02-13T07:32:45.331Z,94934.00
2024-02-13T07:33:45.486Z,94933.00
2024-02-13T07:34:45.325Z,94936.00
2024-02-13T07:35:45.311Z,94937.00
2024-02-13T07:36:45.352Z,94937.00
2024-02-13T07:37:45.297Z,94937.00
2024-02-13T07:38:45.345Z,94938.00
2024-02-13T07:39:45.306Z,94937.00
2024-02-13T07:40:45.310Z,94938.00
2024-02-13T07:41:45.328Z,94942.00
2024-02-13T07:42:45.305Z,94943.00
2024-02-13T07:43:45.306Z,94944.00
2024-02-13T07:44:45.333Z,94945.00
2024-02-13T07:45:45.335Z,94949.00
2024-02-13T07:46:45.350Z,94949.00
2024-02-13T07:47:45.449Z,94948.00
2024-02-13T07:48:45.469Z,94949.00
2024-02-13T07:49:45.437Z,94952.00
2024-02-13T07:50:45.442Z,94952.00
2024-02-13T07:51:45.394Z,94953.00
2024-02-13T07:52:45.420Z,94954.00
2024-02-13T07:53:45.446Z,94956.00
2024-02-13T07:54:45.455Z,94958.00
2024-02-13T07:55:45.457Z,94958.00
2024-02-13T07:56:45.472Z,94958.00
2024-02-13T07:57:45.471Z,94959.00
2024-02-13T07:58:45.473Z,94960.00
2024-02-13T07:59:45.864Z,94961.00
2024-02-13T08:00:45.530Z,94962.00
2024-02-13T08:01:45.518Z,94964.00
2024-02-13T08:02:45.519Z,94964.00
2024-02-13T08:03:45.543Z,94964.00
2024-02-13T08:04:45.736Z,94962.00
2024-02-13T08:05:45.609Z,94964.00
2024-02-13T08:06:45.624Z,94965.00
2024-02-13T08:07:45.571Z,94966.00
2024-02-13T08:08:45.608Z,94970.00
2024-02-13T08:09:45.588Z,94971.00
2024-02-13T08:10:45.609Z,94973.00
2024-02-13T08:11:45.616Z,94973.00
2024-02-13T08:12:45.604Z,94974.00
2024-02-13T08:13:45.612Z,94976.00
2024-02-13T08:14:45.637Z,94978.00
2024-02-13T08:15:45.629Z,94979.00
2024-02-13T08:16:45.626Z,94983.00
2024-02-13T08:17:45.765Z,94983.00
2024-02-13T08:18:45.717Z,94983.00
2024-02-13T08:19:45.699Z,94984.00
2024-02-13T08:20:45.725Z,94986.00
2024-02-13T08:21:45.678Z,94985.00
2024-02-13T08:22:45.680Z,94987.00
2024-02-13T08:23:45.757Z,94986.00
2024-02-13T08:24:45.769Z,94987.00
2024-02-13T08:25:45.787Z,94989.00
2024-02-13T08:26:45.834Z,94987.00
2024-02-13T08:27:45.907Z,94990.00
2024-02-13T08:28:45.906Z,94989.00
2024-02-13T08:29:46.024Z,94987.00
2024-02-13T08:30:46.046Z,94989.00
2024-02-13T08:31:46.102Z,94990.00
2024-02-13T08:32:46.346Z,94990.00
2024-02-13T08:33:46.537Z,94994.00
2024-02-13T08:34:46.480Z,94991.00
2024-02-13T08:35:46.519Z,94988.00
2024-02-13T08:36:46.486Z,94987.00
2024-02-13T08:37:46.510Z,94989.00
2024-02-13T08:38:46.595Z,94997.00
2024-02-13T08:39:46.616Z,94994.00
2024-02-13T08:40:46.687Z,94994.00
2024-02-13T08:41:46.734Z,94990.00
2024-02-13T08:42:46.776Z,94989.00
2024-02-13T08:43:46.858Z,94988.00
2024-02-13T08:44:46.938Z,94987.00
2024-02-13T08:45:46.953Z,94988.00
2024-02-13T08:46:47.016Z,94990.00
2024-02-13T08:47:47.174Z,94992.00
2024-02-13T08:48:47.374Z,94993.00
2024-02-13T08:49:47.416Z,94993.00
2024-02-13T08:50:47.409Z,94995.00
2024-02-13T08:51:47.453Z,94994.00
2024-02-13T08:52:47.399Z,94993.00
2024-02-13T08:53:47.541Z,94996.00
2024-02-13T08:54:47.538Z,94997.00
2024-02-13T08:55:47.604Z,94996.00
2024-02-13T08:56:47.674Z,95000.00
2024-02-13T08:57:47.749Z,94998.00
2024-02-13T08:58:47.793Z,94996.00
2024-02-13T08:59:47.910Z,94998.00
2024-02-13T09:00:47.984Z,94998.00
2024-02-13T09:01:47.988Z,94998.00
2024-02-13T09:02:48.123Z,94997.00
2024-02-13T09:03:48.118Z,94996.00
2024-02-13T09:04:48.274Z,94995.00
2024-02-13T09:05:48.319Z,94993.00
2024-02-13T09:06:48.410Z,94994.00
2024-02-13T09:07:48.404Z,94995.00
2024-02-13T09:08:48.546Z,94994.00
2024-02-13T09:09:48.535Z,94992.00
2024-02-13T09:10:48.581Z,94994.00
2024-02-13T09:11:48.662Z,94992.00
2024-02-13T09:12:48.783Z,94993.00
2024-02-13T09:13:48.759Z,94994.00
2024-02-13T09:14:49.283Z,94994.00
2024-02-13T09:15:48.872Z,94992.00
2024-02-13T09:16:48.912Z,94991.00
2024-02-13T09:17:49.040Z,94990.00
2024-02-13T09:18:49.148Z,94991.00
2024-02-13T09:19:49.057Z,94992.00
2024-02-13T09:20:49.138Z,94997.00
2024-02-13T09:21:49.109Z,95001.00
2024-02-13T09:22:49.128Z,95003.00
2024-02-13T09:23:49.169Z,95005.00
2024-02-13T09:24:49.206Z,95007.00
2024-02-13T09:25:49.251Z,95003.00
2024-02-13T09:26:49.313Z,95005.00
2024-02-13T09:27:49.496Z,95002.00
2024-02-13T09:28:49.337Z,95002.00
2024-02-13T09:29:49.476Z,95001.00
2024-02-13T09:30:49.469Z,95004.00
2024-02-13T09:31:49.532Z,95001.00
2024-02-13T09:32:49.842Z,95001.00
2024-02-13T09:33:49.794Z,95004.00
2024-02-13T09:34:49.669Z,95007.00
2024-02-13T09:35:49.703Z,95005.00
2024-02-13T09:36:49.666Z,95006.00
2024-02-13T09:37:49.757Z,95007.00
2024-02-13T09:38:49.849Z,95008.00
2024-02-13T09:39:49.780Z,95010.00
2024-02-13T09:40:50.078Z,95008.00
2024-02-13T09:41:49.896Z,95007.00
2024-02-13T09:42:49.943Z,95004.00
2024-02-13T09:43:51.720Z,95001.00
2024-02-13T09:44:50.160Z,94999.00
2024-02-13T09:45:50.144Z,94999.00
2024-02-13T09:46:50.114Z,94999.00
2024-02-13T09:47:50.287Z,95003.00
2024-02-13T09:48:50.842Z,95002.00
2024-02-13T09:49:50.297Z,95004.00
2024-02-13T09:50:50.343Z,95001.00
2024-02-13T09:51:50.336Z,95001.00
2024-02-13T09:52:50.365Z,95000.00
2024-02-13T09:53:50.515Z,95005.00
2024-02-13T09:54:50.482Z,95002.00
2024-02-13T09:55:50.534Z,95001.00
2024-02-13T09:56:50.628Z,95003.00
2024-02-13T09:57:50.670Z,95002.00
2024-02-13T09:58:50.681Z,95001.00
2024-02-13T09:59:50.780Z,95003.00
2024-02-13T10:00:50.847Z,95003.00
2024-02-13T10:01:50.828Z,94999.00
2024-02-13T10:02:50.971Z,94998.00
2024-02-13T10:03:50.913Z,95000.00
2024-02-13T10:04:50.922Z,95000.00
2024-02-13T10:05:51.867Z,95000.00
2024-02-13T10:06:51.051Z,94997.00
2024-02-13T10:07:51.011Z,94995.00
2024-02-13T10:08:51.153Z,94997.00
2024-02-13T10:09:51.121Z,94995.00
2024-02-13T10:10:51.124Z,94998.00
2024-02-13T10:11:51.157Z,94995.00
2024-02-13T10:12:51.174Z,94995.00
2024-02-13T10:13:51.194Z,94994.00
2024-02-13T10:14:51.292Z,94994.00
2024-02-13T10:15:51.324Z,94992.00
2024-02-13T10:16:51.398Z,94991.00
2024-02-13T10:17:51.421Z,94991.00
2024-02-13T10:18:51.563Z,94990.00
2024-02-13T10:19:51.582Z,94992.00
2024-02-13T10:20:51.533Z,94990.00
2024-02-13T10:21:51.587Z,94990.00
2024-02-13T10:22:51.709Z,94994.00
2024-02-13T10:23:51.806Z,94992.00
2024-02-13T10:24:51.736Z,94997.00
2024-02-13T10:25:51.763Z,94994.00
2024-02-13T10:26:51.797Z,94989.00
2024-02-13T10:27:51.789Z,94991.00
2024-02-13T10:28:51.838Z,94991.00
2024-02-13T10:29:51.953Z,94989.00
2024-02-13T10:30:51.965Z,94992.00
2024-02-13T10:31:52.027Z,94990.00
2024-02-13T10:32:52.136Z,94989.00
2024-02-13T10:33:52.219Z,94987.00
2024-02-13T10:34:52.191Z,94987.00
2024-02-13T10:35:52.284Z,94985.00
2024-02-13T10:36:52.178Z,94985.00
2024-02-13T10:37:52.193Z,94986.00
2024-02-13T10:38:52.310Z,94983.00
2024-02-13T10:39:52.249Z,94983.00
2024-02-13T10:40:52.249Z,94981.00
2024-02-13T10:41:52.325Z,94976.00
2024-02-13T10:42:52.305Z,94977.00
2024-02-13T10:43:52.289Z,94975.00
2024-02-13T10:44:52.309Z,94973.00
2024-02-13T10:45:52.303Z,94970.00
2024-02-13T10:46:52.322Z,94970.00
2024-02-13T10:47:52.405Z,94971.00
2024-02-13T10:48:52.408Z,94969.00
2024-02-13T10:49:52.372Z,94970.00
2024-02-13T10:50:52.379Z,94969.00
2024-02-13T10:51:52.352Z,94971.00
2024-02-13T10:52:52.373Z,94968.00
2024-02-13T10:53:52.424Z,94967.00
2024-02-13T10:54:52.370Z,94966.00
2024-02-13T10:55:52.380Z,94966.00
2024-02-13T10:56:52.417Z,94963.00
2024-02-13T10:57:52.409Z,94964.00
2024-02-13T10:58:52.384Z,94963.00
2024-02-13T10:59:52.465Z,94965.00
2024-02-13T11:00:52.605Z,94962.00
2024-02-13T11:01:52.528Z,94963.00
2024-02-13T11:02:52.628Z,94962.00
2024-02-13T11:03:52.612Z,94960.00
2024-02-13T11:04:52.545Z,94962.00
2024-02-13T11:05:52.526Z,94960.00
2024-02-13T11:06:52.544Z,94958.00
2024-02-13T11:07:52.497Z,94958.00
2024-02-13T11:08:52.596Z,94954.00
2024-02-13T11:09:52.555Z,94953.00
2024-02-13T11:10:52.601Z,94952.00
2024-02-13T11:11:52.706Z,94955.00
2024-02-13T11:12:52.728Z,94956.00
2024-02-13T11:13:52.799Z,94954.00
2024-02-13T11:14:52.883Z,94958.00
2024-02-13T11:15:52.898Z,94959.00
2024-02-13T11:16:52.971Z,94960.00
2024-02-13T11:17:53.094Z,94959.00
2024-02-13T11:18:53.152Z,94960.00
2024-02-13T11:19:53.120Z,94959.00
2024-02-13T11:20:53.082Z,94956.00
2024-02-13T11:21:53.205Z,94953.00
2024-02-13T11:22:53.045Z,94956.00
2024-02-13T11:23:53.106Z,94953.00
2024-02-13T11:24:53.231Z,94953.00
2024-02-13T11:25:53.085Z,94953.00
2024-02-13T11:26:53.200Z,94950.00
2024-02-13T11:27:53.144Z,94947.00
2024-02-13T11:28:53.145Z,94951.00
2024-02-13T11:29:53.201Z,94950.00
2024-02-13T11:30:53.195Z,94948.00
2024-02-13T11:31:53.253Z,94947.00
2024-02-13T11:32:53.372Z,94946.00
2024-02-13T11:33:53.542Z,94946.00
2024-02-13T11:34:53.435Z,94947.00
2024-02-13T11:35:53.458Z,94943.00
2024-02-13T11:36:53.349Z,94943.00
2024-02-13T11:37:53.406Z,94940.00
2024-02-13T11:38:53.551Z,94942.00
2024-02-13T11:39:53.453Z,94941.00
2024-02-13T11:40:53.483Z,94941.00
2024-02-13T11:41:53.612Z,94939.00
2024-02-13T11:42:53.568Z,94940.00
2024-02-13T11:43:53.590Z,94939.00
2024-02-13T11:44:53.704Z,94937.00